Terminal Aerodrome Forecast
Issued by NWS Melbourne, FL

Current Version | Previous Version | Text Only | Print | Product List | Glossary On
Versions: 1 2 3 4 5 6 7 8 9 10 11 12 13 14 15 16 17 18 19 20 21 22 23 24 25 26
000
FTUS42 KMLB 011100
TAFMCO
TAF
KMCO 011128Z 0112/0212 12003KT P6SM SKC
     FM011500 12005KT P6SM FEW025
     FM012000 11008KT P6SM VCTS SCT045CB
     FM020000 11005KT P6SM FEW040 SCT250=

USA.gov is the U.S. government's official web portal to all federal, state and local government web resources and services.